Time;durP1;ratioP1;P1;durP2;ratioP2;P2;SDS_P1;SDS_P2;PMS_P1;PMS_P2;Temp;Humidity;BMP_temperature;BMP_pressure;BME280_temperature;BME280_humidity;BME280_pressure;Samples;Min_cycle;Max_cycle;Signal;HPM_P1;HPM_P2
2022/02/11 00:00:38;;;;;;;18.45;12.93;;;;;;;7.36;59.80;94600.72;1528323;92;21073;-49
2022/02/11 00:07:55;;;;;;;23.47;14.43;;;;;;;7.30;59.81;94617.49;1526848;92;21127;-49
2022/02/11 00:10:18;;;;;;;23.12;14.75;;;;;;;7.14;59.92;94614.76;1527636;92;21114;-47
2022/02/11 00:12:45;;;;;;;22.17;14.47;;;;;;;6.97;60.30;94613.22;1529119;92;21025;-48
2022/02/11 00:17:53;;;;;;;23.83;15.63;;;;;;;6.65;61.14;94606.34;1524763;92;21104;-48
2022/02/11 00:20:19;;;;;;;29.23;16.77;;;;;;;6.49;61.54;94621.95;1529695;92;21555;-47
2022/02/11 00:22:47;;;;;;;33.08;17.98;;;;;;;6.33;61.86;94617.20;1527406;92;21035;-48
2022/02/11 00:25:14;;;;;;;54.45;23.70;;;;;;;6.19;62.13;94619.47;1526625;92;21527;-48
2022/02/11 00:33:24;;;;;;;24.15;16.97;;;;;;;5.80;63.27;94629.04;1526617;92;21231;-48
2022/02/11 00:35:53;;;;;;;29.37;18.92;;;;;;;5.71;63.71;94623.32;1524930;92;21179;-48
2022/02/11 00:38:18;;;;;;;21.30;14.73;;;;;;;5.63;64.08;94616.47;1528370;92;21034;-50
2022/02/11 01:02:13;;;;;;;31.00;18.20;;;;;;;4.90;66.53;94623.98;1525043;92;21604;-48
2022/02/11 01:04:38;;;;;;;39.05;20.00;;;;;;;4.87;66.61;94620.73;1530171;92;21123;-49
2022/02/11 01:07:08;;;;;;;46.40;24.90;;;;;;;4.85;66.75;94624.45;1527739;92;21126;-47
2022/02/11 01:09:39;;;;;;;43.73;21.85;;;;;;;4.84;66.72;94626.22;1528695;92;21003;-48
2022/02/11 01:12:09;;;;;;;46.28;23.25;;;;;;;4.79;66.78;94632.15;1535788;91;21507;-48
2022/02/11 01:14:39;;;;;;;62.93;31.40;;;;;;;4.79;67.10;94626.09;1527834;92;20983;-47
2022/02/11 01:17:16;;;;;;;64.87;30.60;;;;;;;4.84;67.13;94624.86;1526576;92;21042;-49
2022/02/11 01:19:46;;;;;;;51.63;25.43;;;;;;;4.83;67.19;94617.87;1530195;92;21209;-50
2022/02/11 01:27:33;;;;;;;69.80;31.17;;;;;;;4.98;66.97;94604.95;1525824;92;21347;-49
2022/02/11 01:37:33;;;;;;;65.70;32.25;;;;;;;5.00;66.87;94593.03;1523997;92;21058;-49
2022/02/11 01:43:43;;;;;;;66.00;32.45;;;;;;;4.95;67.00;94590.80;1511190;93;21062;-48
2022/02/11 01:45:29;;;;;;;36.90;22.00;;;;;;;4.94;67.04;94578.96;1530509;92;21178;-48
2022/02/11 01:50:54;;;;;;;22.70;15.25;;;;;;;4.95;66.94;94577.17;1506132;92;21216;-49
2022/02/11 01:53:35;;;;;;;42.13;24.87;;;;;;;4.96;66.88;94569.77;1512128;92;21556;-49
2022/02/11 01:56:09;;;;;;;36.40;21.73;;;;;;;4.92;67.12;94572.55;1514316;92;21047;-49
2022/02/11 02:01:42;;;;;;;26.63;17.37;;;;;;;4.85;67.17;94568.59;1527791;92;21534;-48
2022/02/11 02:12:26;;;;;;;;;;;;;;;;;;;;;
2022/02/11 02:23:13;;;;;;;30.15;18.02;;;;;;;5.19;66.46;94547.33;1525492;92;21101;-48
2022/02/11 02:25:13;;;;;;;;;;;;;;;;;;;;;
2022/02/11 02:27:47;;;;;;;;;;;;;;;5.13;66.61;94540.83;1530521;91;21085;-50
2022/02/11 02:38:23;;;;;;;45.70;25.17;;;;;;;4.82;67.21;94538.05;1526310;92;23215;-48
2022/02/11 02:50:08;;;;;;;34.08;22.45;;;;;;;4.84;67.50;94538.44;1511414;92;21006;-48
2022/02/11 02:56:50;;;;;;;35.05;22.98;;;;;;;4.53;68.59;94541.08;1494164;92;21108;-49
2022/02/11 02:59:34;;;;;;;38.35;23.85;;;;;;;4.43;68.42;94542.01;1528800;91;21602;-48
2022/02/11 03:02:01;;;;;;;41.65;26.55;;;;;;;4.36;68.92;94548.94;1526635;92;21091;-49
2022/02/11 03:56:47;;;;;;;159.35;69.25;;;;;;;4.38;69.06;94532.95;1528624;92;21151;-49
2022/02/11 04:21:29;;;;;;;106.75;54.73;;;;;;;3.88;69.88;94532.73;1527034;92;21038;-47
2022/02/11 04:56:05;;;;;;;76.80;43.92;;;;;;;2.99;71.43;94524.67;1526923;92;20986;-49
2022/02/11 05:01:21;;;;;;;74.60;45.90;;;;;;;2.88;72.26;94524.60;1526216;92;21023;-49
2022/02/11 05:03:45;;;;;;;68.72;43.33;;;;;;;2.88;71.77;94524.00;1510988;92;20983;-48
2022/02/11 05:06:12;;;;;;;106.07;62.95;;;;;;;2.86;71.83;94529.67;1511502;92;21935;-48
2022/02/11 05:08:40;;;;;;;105.58;62.73;;;;;;;2.82;72.08;94528.91;1529869;92;21080;-48
2022/02/11 05:11:09;;;;;;;111.95;65.45;;;;;;;2.86;71.94;94526.95;1527459;92;21647;-48
2022/02/11 05:13:37;;;;;;;111.10;65.75;;;;;;;2.90;71.80;94529.05;1506868;92;21116;-54
2022/02/11 05:16:05;;;;;;;125.33;70.32;;;;;;;2.90;71.77;94524.97;1530751;92;21633;-53
2022/02/11 05:18:33;;;;;;;113.40;63.00;;;;;;;2.87;71.53;94538.00;1529046;92;21179;-51
2022/02/11 05:21:00;;;;;;;118.90;67.65;;;;;;;2.83;71.89;94549.49;1527335;92;21137;-49
2022/02/11 05:23:26;;;;;;;137.35;77.45;;;;;;;2.83;71.97;94552.20;1528342;92;21024;-48
2022/02/11 05:25:53;;;;;;;112.30;67.95;;;;;;;2.83;71.67;94567.15;1528655;92;21046;-50
2022/02/11 05:28:20;;;;;;;73.20;45.43;;;;;;;2.83;72.05;94565.19;1527334;92;21738;-47
2022/02/11 05:30:46;;;;;;;78.85;47.55;;;;;;;2.92;72.46;94570.16;1510757;93;21825;-48
2022/02/11 05:33:14;;;;;;;156.02;81.05;;;;;;;3.01;72.43;94573.16;1528768;92;20986;-48
2022/02/11 05:35:40;;;;;;;161.88;83.65;;;;;;;3.04;71.85;94577.81;1527447;92;21027;-47
2022/02/11 05:38:07;;;;;;;160.03;82.78;;;;;;;2.98;71.21;94586.20;1527399;92;21045;-49
2022/02/11 05:40:34;;;;;;;156.63;90.15;;;;;;;2.82;70.79;94596.24;1527374;92;21735;-49
2022/02/11 05:43:03;;;;;;;167.00;92.08;;;;;;;2.65;71.66;94595.80;1527800;92;21133;-49
2022/02/11 05:45:30;;;;;;;141.90;80.07;;;;;;;2.65;71.51;94596.41;1526135;92;21174;-49
2022/02/11 05:47:57;;;;;;;146.85;80.90;;;;;;;2.61;71.55;94603.78;1528649;92;21104;-48
2022/02/11 05:50:24;;;;;;;134.32;74.15;;;;;;;2.63;71.65;94603.58;1526896;92;21101;-48
2022/02/11 05:52:50;;;;;;;144.35;87.35;;;;;;;2.61;71.58;94610.56;1528703;91;21179;-50
2022/02/11 05:55:18;;;;;;;147.90;84.85;;;;;;;2.54;71.79;94613.34;1527296;92;21307;-53
2022/02/11 05:57:44;;;;;;;151.93;86.17;;;;;;;2.58;72.51;94608.08;1527394;92;21132;-48
2022/02/11 06:00:12;;;;;;;185.07;113.37;;;;;;;2.69;72.73;94611.47;1511675;93;21010;-48
2022/02/11 06:02:39;;;;;;;163.57;98.33;;;;;;;2.88;72.67;94623.75;1528089;92;21107;-47
2022/02/11 06:05:07;;;;;;;162.05;94.97;;;;;;;3.02;72.45;94624.39;1511688;93;21039;-50
2022/02/11 06:07:35;;;;;;;149.47;85.30;;;;;;;3.11;71.80;94629.36;1527743;92;21102;-48
2022/02/11 06:10:04;;;;;;;117.40;70.28;;;;;;;3.13;71.97;94627.02;1531146;93;21048;-49
2022/02/11 06:12:31;;;;;;;122.90;71.55;;;;;;;3.22;71.83;94625.97;1528303;92;21557;-49
2022/02/11 06:14:59;;;;;;;145.77;89.85;;;;;;;3.27;71.76;94624.16;1529561;92;21156;-49
2022/02/11 06:17:25;;;;;;;187.27;113.37;;;;;;;3.28;70.93;94635.22;1541609;91;21888;-48
2022/02/11 06:19:52;;;;;;;215.72;133.35;;;;;;;3.08;70.78;94628.81;1542648;90;21168;-48
2022/02/11 06:22:19;;;;;;;184.85;114.00;;;;;;;3.02;71.12;94635.26;1532242;91;21216;-49
2022/02/11 06:24:47;;;;;;;179.87;111.85;;;;;;;2.94;71.17;94634.36;1552122;91;21131;-48
2022/02/11 06:27:16;;;;;;;169.50;102.47;;;;;;;2.89;71.59;94634.20;1536046;90;21098;-48
2022/02/11 06:29:42;;;;;;;190.47;113.08;;;;;;;2.97;71.96;94637.63;1528747;92;21123;-50
2022/02/11 06:32:10;;;;;;;168.52;98.12;;;;;;;3.08;71.87;94633.64;1529271;92;23194;-49
2022/02/11 06:34:37;;;;;;;211.35;116.60;;;;;;;3.22;71.84;94636.84;1524885;92;21139;-49
2022/02/11 06:37:05;;;;;;;198.68;115.72;;;;;;;3.32;71.39;94641.39;1525488;92;21497;-48
2022/02/11 06:39:32;;;;;;;194.43;111.60;;;;;;;3.30;70.73;94638.30;1529872;92;21611;-48
2022/02/11 06:41:58;;;;;;;187.95;114.60;;;;;;;3.21;70.59;94646.17;1543585;92;21102;-50
2022/02/11 06:44:27;;;;;;;200.53;112.50;;;;;;;3.18;70.90;94646.95;1522291;92;21147;-50
2022/02/11 06:46:53;;;;;;;235.30;135.80;;;;;;;3.16;70.89;94639.78;1515087;92;21791;-49
2022/02/11 06:49:22;;;;;;;212.70;120.10;;;;;;;3.16;71.31;94654.73;1520119;92;22424;-50
2022/02/11 06:51:49;;;;;;;229.63;140.47;;;;;;;3.19;71.55;94642.48;1528347;92;21673;-53
2022/02/11 06:54:15;;;;;;;176.65;108.92;;;;;;;3.35;71.63;94648.73;1521453;92;21211;-49
2022/02/11 06:56:42;;;;;;;189.52;112.47;;;;;;;3.53;71.49;94654.95;1527571;92;21587;-49
2022/02/11 06:59:08;;;;;;;184.10;113.17;;;;;;;3.74;71.15;94654.75;1527970;91;21058;-49
2022/02/11 07:01:35;;;;;;;263.57;142.53;;;;;;;3.92;70.93;94651.81;1543856;90;21564;-49
2022/02/11 07:04:03;;;;;;;326.32;172.22;;;;;;;4.09;70.34;94647.50;1525234;92;21029;-50
2022/02/11 07:06:29;;;;;;;210.93;119.97;;;;;;;4.12;69.91;94646.71;1530846;91;21025;-49
2022/02/11 07:08:56;;;;;;;205.75;122.10;;;;;;;4.09;69.58;94651.58;1509805;93;21147;-51
2022/02/11 07:11:23;;;;;;;239.40;136.97;;;;;;;4.06;69.61;94664.65;1511565;93;21033;-49
2022/02/11 07:13:50;;;;;;;252.82;136.50;;;;;;;4.07;69.63;94664.08;1525891;92;21506;-53
2022/02/11 07:16:17;;;;;;;259.12;147.25;;;;;;;4.11;70.09;94658.78;1516388;92;21080;-53
2022/02/11 07:18:45;;;;;;;214.40;122.72;;;;;;;4.21;69.81;94645.61;1515120;92;21096;-53
2022/02/11 07:21:12;;;;;;;166.25;97.02;;;;;;;4.22;69.60;94655.92;1513903;93;21247;-48
2022/02/11 07:23:41;;;;;;;144.17;88.45;;;;;;;4.14;69.72;94656.59;1507037;93;21170;-50
2022/02/11 07:26:07;;;;;;;156.55;93.50;;;;;;;4.21;69.97;94654.38;1533263;91;21093;-51
2022/02/11 07:28:36;;;;;;;181.28;113.42;;;;;;;4.33;70.17;94653.81;1526640;92;21178;-53
2022/02/11 07:31:03;;;;;;;171.65;100.97;;;;;;;4.42;69.94;94651.37;1531485;90;21139;-53
2022/02/11 07:33:31;;;;;;;186.45;103.97;;;;;;;4.44;70.08;94651.13;1555114;90;21153;-51
2022/02/11 07:35:58;;;;;;;215.30;126.90;;;;;;;4.53;70.16;94647.31;1517078;93;21123;-52
2022/02/11 07:38:25;;;;;;;271.87;151.15;;;;;;;4.65;69.81;94652.20;1516487;92;21125;-50
2022/02/11 07:40:51;;;;;;;282.30;155.90;;;;;;;4.80;69.77;94647.31;1524457;92;21131;-51
2022/02/11 07:43:18;;;;;;;239.90;137.97;;;;;;;4.97;69.42;94646.27;1545897;90;21891;-48
2022/02/11 07:45:45;;;;;;;182.17;112.45;;;;;;;5.11;68.85;94646.80;1516895;91;22459;-49
2022/02/11 07:48:12;;;;;;;150.45;91.65;;;;;;;5.14;68.56;94647.34;1514918;90;21108;-48
2022/02/11 07:50:38;;;;;;;148.62;84.62;;;;;;;5.11;68.43;94644.08;1517876;92;21184;-50
2022/02/11 07:53:05;;;;;;;188.10;109.48;;;;;;;5.11;68.69;94644.69;1518358;92;21111;-49
2022/02/11 07:55:34;;;;;;;190.77;115.17;;;;;;;5.23;68.69;94647.59;1516467;91;21184;-50
2022/02/11 07:58:00;;;;;;;191.75;113.25;;;;;;;5.25;68.01;94636.42;1476063;94;21169;-48
2022/02/11 08:00:29;;;;;;;201.32;126.82;;;;;;;5.23;68.05;94642.13;1537042;91;21178;-51
2022/02/11 08:02:55;;;;;;;221.35;132.57;;;;;;;5.19;67.51;94646.09;1526969;91;21180;-49
2022/02/11 08:05:22;;;;;;;197.47;120.35;;;;;;;5.13;67.52;94645.04;1527994;92;21591;-47
2022/02/11 08:07:49;;;;;;;245.57;140.05;;;;;;;5.12;67.51;94640.16;1526064;91;21107;-50
2022/02/11 08:10:15;;;;;;;292.18;165.22;;;;;;;5.05;67.71;94635.42;1531361;91;21062;-49
2022/02/11 08:12:42;;;;;;;244.80;144.25;;;;;;;5.04;68.22;94640.70;1523879;91;21065;-49
2022/02/11 08:15:10;;;;;;;200.30;129.35;;;;;;;5.09;68.45;94641.00;1518750;92;21084;-53
2022/02/11 08:17:40;;;;;;;203.52;124.33;;;;;;;5.22;68.52;94637.08;1524993;92;22306;-52
2022/02/11 08:20:09;;;;;;;221.93;135.28;;;;;;;5.37;68.30;94633.69;1519649;90;21129;-49
2022/02/11 08:22:37;;;;;;;322.93;173.17;;;;;;;5.55;68.12;94633.56;1511830;92;21176;-48
2022/02/11 08:25:05;;;;;;;324.07;177.10;;;;;;;5.76;67.39;94637.87;1541563;91;21475;-51
2022/02/11 08:27:33;;;;;;;356.32;191.12;;;;;;;5.84;67.16;94632.47;1530030;91;21666;-48
2022/02/11 08:30:02;;;;;;;347.07;191.43;;;;;;;5.91;67.03;94639.92;1530943;92;21162;-51
2022/02/11 08:32:30;;;;;;;265.45;153.18;;;;;;;5.99;66.90;94631.00;1537093;91;21652;-48
2022/02/11 08:34:58;;;;;;;224.32;137.22;;;;;;;6.11;66.60;94621.58;1527442;92;21883;-50
2022/02/11 08:37:25;;;;;;;204.15;123.00;;;;;;;6.15;66.43;94623.63;1528770;92;21044;-49
2022/02/11 08:39:52;;;;;;;192.18;115.45;;;;;;;6.20;66.23;94623.74;1533406;92;21107;-49
2022/02/11 08:42:20;;;;;;;182.45;112.90;;;;;;;6.21;65.82;94621.97;1535927;91;21072;-49
2022/02/11 08:44:49;;;;;;;186.03;118.02;;;;;;;6.13;65.72;94624.66;1538369;91;21691;-54
2022/02/11 08:47:17;;;;;;;184.80;115.82;;;;;;;6.06;65.98;94631.64;1536690;90;21420;-49
2022/02/11 08:49:44;;;;;;;184.87;120.95;;;;;;;6.10;65.87;94638.38;1540542;90;21088;-50
2022/02/11 08:52:10;;;;;;;187.20;118.17;;;;;;;6.11;66.00;94638.55;1517382;92;21126;-49
2022/02/11 08:54:37;;;;;;;189.05;118.75;;;;;;;6.18;65.86;94637.05;1528006;92;21040;-47
2022/02/11 08:57:04;;;;;;;149.87;98.00;;;;;;;6.27;65.76;94630.41;1536471;90;21188;-48
2022/02/11 08:59:31;;;;;;;137.52;86.53;;;;;;;6.37;65.59;94630.80;1525736;90;21175;-51
2022/02/11 09:01:58;;;;;;;147.43;89.45;;;;;;;6.48;65.64;94631.35;1528368;92;21116;-49
2022/02/11 09:04:24;;;;;;;136.28;81.60;;;;;;;6.68;65.47;94627.97;1533197;92;21176;-48
2022/02/11 09:06:53;;;;;;;158.15;95.65;;;;;;;6.87;64.80;94638.83;1538365;91;21155;-53
2022/02/11 09:09:23;;;;;;;144.93;88.65;;;;;;;6.96;64.13;94643.13;1520946;92;21137;-49
2022/02/11 09:11:50;;;;;;;140.20;86.95;;;;;;;7.00;63.81;94632.09;1542105;91;21352;-49
2022/02/11 09:14:17;;;;;;;149.53;93.30;;;;;;;7.00;63.84;94630.72;1535054;91;21609;-52
2022/02/11 09:16:44;;;;;;;148.45;93.20;;;;;;;6.97;63.62;94627.47;1531614;92;21893;-52
2022/02/11 09:19:12;;;;;;;150.12;89.37;;;;;;;6.95;63.88;94635.34;1530752;91;21860;-48
2022/02/11 09:21:43;;;;;;;155.55;93.40;;;;;;;6.99;63.84;94639.53;1533009;92;21059;-53
2022/02/11 09:24:10;;;;;;;147.40;93.17;;;;;;;6.98;63.79;94638.59;1529470;92;21169;-48
2022/02/11 09:26:36;;;;;;;184.37;110.25;;;;;;;6.98;64.01;94643.47;1526084;92;21091;-47
2022/02/11 09:29:04;;;;;;;164.65;99.97;;;;;;;7.05;64.04;94645.27;1529595;91;21139;-47
2022/02/11 09:31:31;;;;;;;150.60;94.25;;;;;;;7.22;63.96;94636.63;1536651;91;21465;-50
2022/02/11 09:34:04;;;;;;;158.45;97.37;;;;;;;7.35;63.61;94633.38;1532458;92;21185;-50
2022/02/11 09:36:34;;;;;;;149.38;94.10;;;;;;;7.48;63.17;94636.97;1529529;92;21192;-49
2022/02/11 09:39:03;;;;;;;144.90;91.25;;;;;;;7.51;62.83;94642.34;1550472;90;21114;-57
2022/02/11 09:41:30;;;;;;;152.70;96.00;;;;;;;7.52;62.62;94632.17;1533537;92;21141;-50
2022/02/11 09:44:00;;;;;;;139.70;88.27;;;;;;;7.53;62.54;94641.30;1532080;92;21840;-50
2022/02/11 09:46:30;;;;;;;138.35;84.00;;;;;;;7.53;62.55;94630.97;1528153;91;22078;-53
2022/02/11 09:48:57;;;;;;;126.40;80.35;;;;;;;7.55;62.53;94636.16;1531359;91;21204;-50
2022/02/11 09:51:24;;;;;;;119.67;78.42;;;;;;;7.60;62.29;94623.34;1560495;90;21649;-51
2022/02/11 09:53:51;;;;;;;134.00;81.60;;;;;;;7.66;62.27;94636.67;1532769;91;21116;-49
2022/02/11 09:56:18;;;;;;;138.82;86.02;;;;;;;7.74;61.98;94623.56;1533241;90;21088;-49
2022/02/11 09:58:50;;;;;;;153.07;90.45;;;;;;;7.84;61.79;94623.87;1536087;91;21789;-50
2022/02/11 10:01:19;;;;;;;149.97;92.17;;;;;;;7.95;61.66;94623.77;1532379;91;21237;-48
2022/02/11 10:03:50;;;;;;;131.22;78.07;;;;;;;7.99;61.53;94618.96;1531684;91;21902;-48
2022/02/11 10:06:19;;;;;;;116.53;72.05;;;;;;;8.00;61.22;94614.23;1524577;91;21191;-48
2022/02/11 10:08:46;;;;;;;117.80;73.35;;;;;;;8.00;60.94;94610.91;1533501;91;21110;-48
2022/02/11 10:11:15;;;;;;;122.17;74.70;;;;;;;8.03;61.15;94610.03;1489613;93;21150;-48
2022/02/11 10:13:44;;;;;;;218.65;113.35;;;;;;;8.12;61.04;94617.03;1509338;92;39356;-49
2022/02/11 10:16:15;;;;;;;164.67;95.55;;;;;;;8.19;60.84;94614.11;1524678;91;21198;-49
2022/02/11 10:18:47;;;;;;;180.40;98.37;;;;;;;8.25;60.92;94611.61;1537525;91;21149;-51
2022/02/11 10:21:20;;;;;;;;;;;;;;;8.31;60.65;94620.23;1563147;89;21096;-50
2022/02/11 10:23:50;;;;;;;139.97;80.27;;;;;;;8.40;60.53;94603.16;1557209;90;20200;-50
2022/02/11 10:26:22;;;;;;;128.68;76.45;;;;;;;8.44;60.34;94608.67;1530917;92;21159;-48
2022/02/11 10:28:56;;;;;;;123.65;76.57;;;;;;;8.49;60.20;94609.52;1531568;91;21152;-49
2022/02/11 10:31:33;;;;;;;116.50;71.85;;;;;;;8.56;59.93;94608.52;1520566;92;21080;-48
2022/02/11 10:34:11;;;;;;;183.87;88.15;;;;;;;8.59;59.77;94604.93;1530553;92;22093;-48
2022/02/11 10:36:48;;;;;;;221.82;95.90;;;;;;;8.61;59.68;94604.64;1523887;92;21167;-59
2022/02/11 10:39:23;;;;;;;220.12;97.70;;;;;;;8.63;59.43;94606.34;1549395;89;21174;-49
2022/02/11 10:41:58;;;;;;;207.87;90.72;;;;;;;8.68;59.21;94597.59;1502168;93;21425;-51
2022/02/11 10:44:30;;;;;;;236.25;97.33;;;;;;;8.71;59.04;94602.19;1528072;92;21104;-49
2022/02/11 10:47:04;;;;;;;235.10;97.15;;;;;;;8.74;58.82;94599.94;1519879;92;21625;-51
2022/02/11 10:49:42;;;;;;;172.40;80.45;;;;;;;8.79;58.62;94595.27;1506296;93;21264;-50
2022/02/11 10:52:17;;;;;;;140.07;67.03;;;;;;;8.82;58.45;94598.50;1519902;90;22018;-52
2022/02/11 10:54:46;;;;;;;120.50;66.40;;;;;;;8.83;58.50;94593.80;1534933;91;21112;-49
2022/02/11 10:57:14;;;;;;;99.72;57.27;;;;;;;8.86;58.58;94595.66;1535331;92;21655;-51
2022/02/11 10:59:44;;;;;;;106.72;61.65;;;;;;;8.88;58.37;94597.36;1526129;91;21074;-49
2022/02/11 11:02:20;;;;;;;116.77;65.60;;;;;;;8.85;58.15;94596.86;1537201;90;21655;-51
2022/02/11 11:04:51;;;;;;;153.68;74.50;;;;;;;8.83;58.26;94595.92;1522313;90;21787;-49
2022/02/11 11:07:25;;;;;;;176.45;83.62;;;;;;;8.84;58.12;94600.20;1527309;90;21840;-47
2022/02/11 11:09:53;;;;;;;206.30;92.42;;;;;;;8.85;58.13;94603.72;1531747;91;21541;-48
2022/02/11 11:12:26;;;;;;;149.05;77.40;;;;;;;8.82;58.26;94597.13;1533101;92;21723;-50
2022/02/11 11:14:59;;;;;;;129.85;68.90;;;;;;;8.77;58.22;94603.17;1527021;92;21068;-51
2022/02/11 11:17:26;;;;;;;128.87;70.20;;;;;;;8.77;58.34;94605.16;1521183;92;21355;-49
2022/02/11 11:19:55;;;;;;;112.35;64.03;;;;;;;8.77;58.31;94608.66;1528730;92;21573;-50
2022/02/11 11:22:27;;;;;;;121.15;69.12;;;;;;;8.82;58.22;94597.13;1524159;92;21223;-51
2022/02/11 11:25:03;;;;;;;142.43;79.03;;;;;;;8.86;58.17;94603.30;1529016;92;21128;-47
2022/02/11 11:27:53;;;;;;;130.35;74.97;;;;;;;8.87;57.97;94603.45;1505612;93;21126;-52
2022/02/11 11:30:30;;;;;;;164.32;91.28;;;;;;;8.93;57.93;94603.06;1515544;92;21103;-48
2022/02/11 11:33:16;;;;;;;126.05;72.08;;;;;;;9.07;57.88;94598.51;1513534;94;20994;-50
2022/02/11 11:35:51;;;;;;;135.70;74.80;;;;;;;9.25;57.51;94614.55;1503488;92;21135;-49
2022/02/11 11:38:25;;;;;;;103.87;62.55;;;;;;;9.40;56.76;94606.64;1507565;93;21104;-48
2022/02/11 11:41:19;;;;;;;79.95;48.80;;;;;;;9.55;56.50;94600.81;1519349;92;21115;-49
2022/02/11 11:43:57;;;;;;;41.90;28.35;;;;;;;9.81;55.30;94608.53;1508136;94;21243;-47
2022/02/11 11:46:33;;;;;;;27.52;19.95;;;;;;;10.19;53.18;94598.79;1520536;92;21176;-48
2022/02/11 11:49:10;;;;;;;20.40;14.85;;;;;;;10.63;51.22;94586.52;1528704;92;21125;-52
2022/02/11 11:51:49;;;;;;;22.20;15.93;;;;;;;11.22;49.67;94593.20;1524944;92;21615;-50
2022/02/11 11:54:22;;;;;;;16.93;14.05;;;;;;;12.16;48.18;94593.96;1516334;92;21150;-49
2022/02/11 11:56:57;;;;;;;21.95;14.73;;;;;;;12.98;46.06;94584.30;1519624;92;21393;-49
2022/02/11 11:59:50;;;;;;;24.18;15.38;;;;;;;13.41;43.15;94586.57;1546907;90;21050;-49
2022/02/11 12:02:22;;;;;;;23.30;15.63;;;;;;;13.91;42.91;94589.16;1525171;92;21121;-51
2022/02/11 12:04:56;;;;;;;24.45;16.73;;;;;;;14.26;41.58;94585.22;1532167;92;21684;-52
2022/02/11 12:07:36;;;;;;;22.27;15.05;;;;;;;14.40;41.06;94583.84;1524574;92;21127;-50
2022/02/11 12:10:05;;;;;;;18.00;12.63;;;;;;;14.81;40.23;94590.52;1524512;92;21176;-49
2022/02/11 12:12:36;;;;;;;14.70;10.82;;;;;;;15.15;39.30;94585.67;1542419;90;21600;-49
2022/02/11 12:15:06;;;;;;;15.35;11.03;;;;;;;15.13;37.87;94584.61;1516932;93;22400;-50
2022/02/11 12:17:33;;;;;;;16.07;12.60;;;;;;;14.82;38.02;94582.34;1520814;92;21632;-52
2022/02/11 12:20:00;;;;;;;14.45;12.45;;;;;;;14.68;38.30;94580.97;1514621;93;21099;-50
2022/02/11 12:22:31;;;;;;;14.98;12.30;;;;;;;14.86;37.53;94580.17;1516296;92;21183;-46
2022/02/11 12:27:49;;;;;;;15.90;12.68;;;;;;;14.81;38.08;94581.45;1532600;92;21125;-51
2022/02/11 12:30:24;;;;;;;16.15;12.05;;;;;;;14.84;37.70;94585.40;1503521;93;21170;-51
2022/02/11 12:32:59;;;;;;;17.92;13.40;;;;;;;14.90;37.92;94587.66;1510134;92;21815;-49
2022/02/11 12:35:30;;;;;;;13.90;11.22;;;;;;;14.79;37.86;94582.56;1517346;91;21362;-48
2022/02/11 12:37:59;;;;;;;14.13;11.43;;;;;;;14.62;37.65;94578.73;1523588;92;21115;-52
2022/02/11 12:40:28;;;;;;;15.23;12.20;;;;;;;14.35;37.96;94575.47;1525812;92;21196;-51
2022/02/11 12:42:59;;;;;;;15.05;11.33;;;;;;;14.74;38.40;94574.90;1523689;92;21069;-51
2022/02/11 12:45:32;;;;;;;18.10;14.85;;;;;;;15.50;37.04;94563.53;1526073;92;21230;-52
2022/02/11 12:47:59;;;;;;;15.93;11.83;;;;;;;16.02;35.76;94560.46;1533262;90;22568;-50
2022/02/11 12:50:36;;;;;;;13.60;11.08;;;;;;;16.56;35.41;94562.36;1518709;92;21027;-53
2022/02/11 12:53:06;;;;;;;28.80;19.23;;;;;;;17.03;34.77;94556.20;1530000;91;21054;-51
2022/02/11 12:55:36;;;;;;;22.67;17.35;;;;;;;17.42;33.51;94552.50;1533227;92;21273;-49
2022/02/11 12:58:09;;;;;;;18.48;16.37;;;;;;;17.63;33.31;94555.28;1533692;91;21111;-51
2022/02/11 13:00:39;;;;;;;17.07;14.20;;;;;;;17.73;33.21;94548.89;1533433;91;21214;-51
2022/02/11 13:03:08;;;;;;;33.92;28.85;;;;;;;17.63;32.84;94554.54;1534584;90;21084;-48
2022/02/11 13:05:52;;;;;;;18.07;15.20;;;;;;;17.82;32.78;94555.02;1531420;91;21144;-50
2022/02/11 13:08:24;;;;;;;24.98;17.42;;;;;;;18.16;32.38;94548.34;1535759;91;21124;-48
2022/02/11 13:11:05;;;;;;;16.75;12.50;;;;;;;17.91;32.05;94545.69;1550674;90;21575;-48
2022/02/11 13:13:32;;;;;;;14.13;10.70;;;;;;;17.23;32.80;94547.77;1527181;92;21174;-52
2022/02/11 13:16:03;;;;;;;13.48;10.53;;;;;;;16.28;33.88;94548.16;1534745;90;21167;-48
2022/02/11 13:18:31;;;;;;;19.37;12.30;;;;;;;15.69;35.02;94536.45;1525742;91;21128;-48
2022/02/11 13:21:06;;;;;;;15.08;11.75;;;;;;;15.97;35.33;94541.73;1551513;90;21175;-48
2022/02/11 13:23:34;;;;;;;29.60;19.17;;;;;;;16.68;34.77;94536.97;1507994;93;21098;-47
2022/02/11 13:26:05;;;;;;;58.28;30.60;;;;;;;17.07;33.84;94531.75;1540694;89;21246;-48
2022/02/11 13:28:38;;;;;;;26.20;18.75;;;;;;;16.93;33.96;94538.95;1515162;92;21143;-50
2022/02/11 13:31:04;;;;;;;23.40;17.05;;;;;;;16.78;34.04;94541.73;1529985;91;22251;-48
2022/02/11 13:33:35;;;;;;;24.82;17.20;;;;;;;16.32;34.74;94543.14;1527767;92;21112;-48
2022/02/11 13:36:11;;;;;;;36.90;21.10;;;;;;;15.79;35.19;94544.80;1533171;91;21065;-49
2022/02/11 13:38:41;;;;;;;30.30;19.37;;;;;;;15.30;36.12;94535.16;1536352;90;21953;-49
2022/02/11 13:41:11;;;;;;;24.02;17.52;;;;;;;15.13;36.50;94539.66;1500826;91;21140;-49
2022/02/11 13:44:06;;;;;;;21.85;15.48;;;;;;;15.38;36.30;94538.30;1534987;90;21582;-49
2022/02/11 13:46:40;;;;;;;19.37;15.32;;;;;;;15.54;35.98;94544.06;1530490;91;21212;-48
2022/02/11 13:49:10;;;;;;;39.33;24.10;;;;;;;15.40;36.55;94540.70;1528135;90;21112;-48
2022/02/11 13:51:39;;;;;;;63.78;37.88;;;;;;;15.32;36.80;94529.15;1517849;91;21211;-50
2022/02/11 13:54:16;;;;;;;38.80;26.65;;;;;;;15.54;36.78;94540.55;1537548;91;21208;-49
2022/02/11 13:56:50;;;;;;;34.08;19.73;;;;;;;15.52;36.69;94531.95;1533310;92;20993;-50
2022/02/11 13:59:23;;;;;;;22.70;16.95;;;;;;;15.15;36.38;94538.56;1532501;91;21183;-49
2022/02/11 14:01:49;;;;;;;50.43;27.65;;;;;;;14.50;37.08;94530.72;1538904;90;21066;-51
2022/02/11 14:04:21;;;;;;;35.78;18.82;;;;;;;13.93;37.94;94534.73;1541849;90;21320;-48
2022/02/11 14:06:55;;;;;;;35.00;22.15;;;;;;;13.40;38.94;94531.91;1529376;91;21123;-48
2022/02/11 14:09:35;;;;;;;42.25;24.47;;;;;;;12.86;39.70;94528.64;1522924;92;21717;-49
2022/02/11 14:11:59;;;;;;;46.73;27.60;;;;;;;12.44;40.60;94527.85;1528099;91;21057;-49
2022/02/11 14:14:27;;;;;;;59.05;35.30;;;;;;;12.08;41.44;94532.06;1523234;92;21112;-48
2022/02/11 14:16:55;;;;;;;40.55;25.72;;;;;;;11.80;42.04;94537.45;1518047;91;21871;-48
2022/02/11 14:19:24;;;;;;;30.57;19.73;;;;;;;11.57;42.63;94531.14;1552130;90;21072;-49
2022/02/11 14:21:53;;;;;;;21.90;14.53;;;;;;;11.46;43.09;94543.81;1539221;91;21488;-47
2022/02/11 14:24:21;;;;;;;28.02;15.43;;;;;;;11.26;43.09;94547.02;1531405;90;21384;-48
2022/02/11 14:26:48;;;;;;;29.92;17.15;;;;;;;10.98;43.72;94548.14;1516498;90;21107;-49
2022/02/11 14:29:15;;;;;;;28.07;18.67;;;;;;;10.81;44.14;94548.23;1534629;91;21330;-48
2022/02/11 14:31:43;;;;;;;30.48;19.80;;;;;;;10.63;44.60;94548.01;1557388;89;21628;-48
2022/02/11 14:34:10;;;;;;;27.90;19.77;;;;;;;10.47;45.03;94542.73;1542669;91;21143;-47
2022/02/11 14:36:38;;;;;;;46.95;26.85;;;;;;;10.29;45.55;94540.66;1529436;90;21462;-48
2022/02/11 14:39:09;;;;;;;44.35;24.87;;;;;;;10.08;46.20;94553.05;1530614;92;21116;-48
2022/02/11 14:41:48;;;;;;;38.58;23.65;;;;;;;9.90;46.56;94552.30;1529981;90;21816;-49
2022/02/11 14:44:26;;;;;;;37.10;19.45;;;;;;;9.72;47.33;94559.61;1504141;92;21183;-47
2022/02/11 14:46:55;;;;;;;22.45;13.58;;;;;;;9.49;48.11;94561.41;1538556;91;21643;-49
2022/02/11 14:49:23;;;;;;;17.12;12.90;;;;;;;9.22;48.93;94568.78;1514251;92;21046;-50
2022/02/11 14:51:53;;;;;;;15.65;11.40;;;;;;;8.99;49.61;94562.88;1533586;90;21131;-48
2022/02/11 14:54:20;;;;;;;19.42;13.13;;;;;;;8.77;50.42;94569.51;1544843;90;21235;-47
2022/02/11 14:56:48;;;;;;;17.82;14.18;;;;;;;8.60;50.98;94572.94;1531224;92;21321;-47